Time;durP1;ratioP1;P1;durP2;ratioP2;P2;SDS_P1;SDS_P2;PMS_P1;PMS_P2;Temp;Humidity;BMP_temperature;BMP_pressure;BME280_temperature;BME280_humidity;BME280_pressure;Samples;Min_cycle;Max_cycle;Signal;HPM_P1;HPM_P2
2022/08/09 00:00:04;;;;;;;;;;;;;;;20.16;51.59;102589.34;5082610;28;19924;-87
2022/08/09 00:02:30;;;;;;;;;;;;;;;20.16;51.85;102576.78;5083981;28;19962;-88
2022/08/09 00:04:55;;;;;;;;;;;;;;;20.12;51.16;102577.88;5066233;28;20430;-88
2022/08/09 00:07:20;;;;;;;;;;;;;;;20.12;52.81;102577.88;5066618;28;19958;-88
2022/08/09 00:09:45;;;;;;;;;;;;;;;20.08;52.63;102582.53;5082176;28;19920;-88
2022/08/09 00:12:10;;;;;;;;;;;;;;;19.97;52.27;102568.81;5076130;28;19927;-88
2022/08/09 00:14:36;;;;;;;;;;;;;;;19.93;53.16;102571.75;5080331;28;19971;-87
2022/08/09 00:17:01;;;;;;;;;;;;;;;19.87;52.82;102576.50;5081993;28;19928;-88
2022/08/09 00:19:27;;;;;;;;;;;;;;;19.81;53.14;102571.41;5065315;28;20012;-87
2022/08/09 00:21:52;;;;;;;;;;;;;;;19.79;51.54;102570.63;5086109;28;19935;-87
2022/08/09 00:24:17;;;;;;;;;;;;;;;19.75;50.32;102571.75;5067384;28;19975;-87
2022/08/09 00:26:43;;;;;;;;;;;;;;;19.73;50.12;102576.34;5087519;28;20423;-88
2022/08/09 00:29:09;;;;;;;;;;;;;;;19.68;49.52;102572.13;5086047;28;19916;-87
2022/08/09 00:31:34;;;;;;;;;;;;;;;19.62;49.06;102581.34;5086356;28;19943;-88
2022/08/09 00:33:59;;;;;;;;;;;;;;;19.58;49.66;102577.06;5083590;28;20406;-87
2022/08/09 00:36:24;;;;;;;;;;;;;;;19.57;50.22;102572.63;5085724;28;19928;-87
2022/08/09 00:38:50;;;;;;;;;;;;;;;19.52;50.03;102575.56;5059836;28;19947;-87
2022/08/09 00:41:17;;;;;;;;;;;;;;;19.51;48.94;102572.97;5075751;28;19995;-87
2022/08/09 00:43:43;;;;;;;;;;;;;;;19.47;50.11;102569.56;5080567;28;19916;-87
2022/08/09 00:46:08;;;;;;;;;;;;;;;19.44;49.34;102567.00;5080763;28;20371;-87
2022/08/09 00:48:34;;;;;;;;;;;;;;;19.39;49.91;102566.38;5081353;28;19938;-87
2022/08/09 00:51:02;;;;;;;;;;;;;;;19.35;50.22;102571.06;5083198;28;19916;-87
2022/08/09 00:53:27;;;;;;;;;;;;;;;19.31;49.57;102569.47;5072418;28;19927;-87
2022/08/09 00:55:53;;;;;;;;;;;;;;;19.16;50.50;102572.00;5068018;28;20287;-87
2022/08/09 00:58:18;;;;;;;;;;;;;;;18.88;51.20;102573.31;5065798;28;20205;-87
2022/08/09 01:00:43;;;;;;;;;;;;;;;18.64;51.29;102571.78;5067207;28;20398;-87
2022/08/09 01:03:08;;;;;;;;;;;;;;;18.61;51.21;102573.66;5048158;28;19920;-87
2022/08/09 01:05:39;;;;;;;;;;;;;;;18.69;51.62;102578.69;5066031;28;20297;-87
2022/08/09 01:08:09;;;;;;;;;;;;;;;18.76;51.13;102574.78;5047309;28;19916;-87
2022/08/09 01:10:46;;;;;;;;;;;;;;;18.81;51.75;102575.44;5066729;28;19924;-87
2022/08/09 01:13:11;;;;;;;;;;;;;;;18.76;51.34;102572.13;5066861;28;20264;-87
2022/08/09 01:15:39;;;;;;;;;;;;;;;18.75;51.55;102569.50;5067628;28;19925;-87
2022/08/09 01:18:07;;;;;;;;;;;;;;;18.66;51.77;102575.28;5068449;28;20075;-87
2022/08/09 01:20:32;;;;;;;;;;;;;;;18.71;53.65;102574.13;5060792;28;20269;-87
2022/08/09 01:23:00;;;;;;;;;;;;;;;18.72;51.05;102570.50;5064179;28;19924;-87
2022/08/09 01:25:44;;;;;;;;;;;;;;;18.75;52.11;102573.06;5067200;28;20384;-87
2022/08/09 01:28:10;;;;;;;;;;;;;;;18.75;51.23;102578.41;5063428;28;19916;-87
2022/08/09 01:30:36;;;;;;;;;;;;;;;18.67;51.75;102571.66;5065500;28;19966;-87
2022/08/09 01:33:02;;;;;;;;;;;;;;;18.63;51.77;102578.94;5046651;28;20761;-87
2022/08/09 01:35:27;;;;;;;;;;;;;;;18.56;51.64;102570.34;5061931;28;20024;-87
2022/08/09 01:37:54;;;;;;;;;;;;;;;18.57;51.88;102571.19;5066698;28;19920;-87
2022/08/09 01:40:21;;;;;;;;;;;;;;;18.56;52.37;102564.13;5061117;28;20371;-87
2022/08/09 01:42:48;;;;;;;;;;;;;;;18.54;51.79;102566.84;5067244;28;19916;-87
2022/08/09 01:45:14;;;;;;;;;;;;;;;18.55;52.04;102573.94;5047884;28;19974;-87
2022/08/09 01:47:40;;;;;;;;;;;;;;;18.52;52.22;102568.72;5063868;28;20387;-87
2022/08/09 01:50:06;;;;;;;;;;;;;;;18.53;52.40;102572.28;5064110;28;19971;-87
2022/08/09 01:52:31;;;;;;;;;;;;;;;18.50;52.21;102570.59;5067890;28;19920;-87
2022/08/09 01:54:58;;;;;;;;;;;;;;;18.48;52.25;102572.50;5081233;28;19916;-87
2022/08/09 01:57:25;;;;;;;;;;;;;;;18.32;53.83;102574.09;5077455;28;19920;-87
2022/08/09 01:59:52;;;;;;;;;;;;;;;18.25;54.36;102568.16;5085153;28;20007;-87
2022/08/09 02:02:27;;;;;;;;;;;;;;;18.35;55.20;102582.88;5082015;28;19961;-87
2022/08/09 02:04:54;;;;;;;;;;;;;;;18.43;55.77;102584.34;5080593;28;19960;-87
2022/08/09 02:07:23;;;;;;;;;;;;;;;18.48;54.98;102585.00;5072201;28;19920;-87
2022/08/09 02:09:51;;;;;;;;;;;;;;;18.47;55.12;102580.59;5083953;28;20379;-87
2022/08/09 02:12:17;;;;;;;;;;;;;;;18.46;54.47;102589.56;5081076;28;19921;-87
2022/08/09 02:14:44;;;;;;;;;;;;;;;18.39;55.31;102585.44;5080954;28;20299;-87
2022/08/09 02:17:10;;;;;;;;;;;;;;;18.32;55.18;102585.69;5083464;28;20992;-87
2022/08/09 02:19:35;;;;;;;;;;;;;;;18.31;56.89;102589.31;5080638;28;19938;-87
2022/08/09 02:22:04;;;;;;;;;;;;;;;18.32;55.94;102585.69;5073526;28;20383;-87
2022/08/09 02:24:34;;;;;;;;;;;;;;;18.28;57.08;102592.16;5078467;28;19920;-87
2022/08/09 02:27:01;;;;;;;;;;;;;;;18.24;56.16;102582.50;5075309;28;19916;-87
2022/08/09 02:29:28;;;;;;;;;;;;;;;18.21;55.66;102582.63;5075488;28;20029;-87
2022/08/09 02:31:56;;;;;;;;;;;;;;;18.16;56.85;102587.31;5081516;28;19959;-87
2022/08/09 02:34:25;;;;;;;;;;;;;;;18.14;56.74;102583.84;5082018;28;19970;-87
2022/08/09 02:36:53;;;;;;;;;;;;;;;18.13;55.64;102583.91;5078653;28;19924;-88
2022/08/09 02:39:20;;;;;;;;;;;;;;;18.08;55.01;102582.28;5077768;28;19920;-87
2022/08/09 02:41:52;;;;;;;;;;;;;;;18.06;54.21;102580.63;5065701;28;20364;-87
2022/08/09 02:44:19;;;;;;;;;;;;;;;18.04;53.99;102577.16;5077346;28;19924;-87
2022/08/09 02:46:45;;;;;;;;;;;;;;;18.00;53.20;102581.78;5084380;28;20003;-87
2022/08/09 02:49:11;;;;;;;;;;;;;;;17.93;53.37;102577.63;5079317;28;20007;-87
2022/08/09 02:51:38;;;;;;;;;;;;;;;17.80;53.86;102574.59;5081297;28;19924;-87
2022/08/09 02:54:03;;;;;;;;;;;;;;;17.73;53.86;102578.47;5082449;28;19928;-87
2022/08/09 02:56:32;;;;;;;;;;;;;;;17.70;54.02;102573.22;5059708;28;19924;-87
2022/08/09 02:58:59;;;;;;;;;;;;;;;17.67;53.56;102569.78;5077200;28;20003;-87
2022/08/09 03:01:25;;;;;;;;;;;;;;;17.63;53.67;102571.75;5079551;28;20446;-87
2022/08/09 03:03:52;;;;;;;;;;;;;;;17.59;53.63;102570.13;5084232;28;20007;-87
2022/08/09 03:06:17;;;;;;;;;;;;;;;17.54;53.81;102575.69;5078765;28;19919;-87
2022/08/09 03:08:43;;;;;;;;;;;;;;;17.53;53.96;102576.63;5080457;28;20476;-87
2022/08/09 03:11:09;;;;;;;;;;;;;;;17.53;53.97;102575.72;5078127;28;19916;-87
2022/08/09 03:13:35;;;;;;;;;;;;;;;17.49;54.51;102574.13;5080920;28;20264;-87
2022/08/09 03:16:01;;;;;;;;;;;;;;;17.50;54.89;102573.19;5075557;28;19935;-87
2022/08/09 03:18:27;;;;;;;;;;;;;;;17.53;55.40;102573.03;5080157;28;19924;-87
2022/08/09 03:20:54;;;;;;;;;;;;;;;17.53;54.75;102570.38;5078725;28;19920;-87
2022/08/09 03:23:19;;;;;;;;;;;;;;;17.48;54.56;102573.25;5082062;28;19977;-87
2022/08/09 03:25:46;;;;;;;;;;;;;;;17.42;55.47;102573.50;5062256;28;19970;-87
2022/08/09 03:28:12;;;;;;;;;;;;;;;17.39;54.25;102570.94;5080267;28;19924;-87
2022/08/09 03:30:37;;;;;;;;;;;;;;;17.36;54.90;102564.88;5082674;28;19916;-87
2022/08/09 03:33:05;;;;;;;;;;;;;;;17.30;54.50;102563.34;5079391;28;20003;-87
2022/08/09 03:35:31;;;;;;;;;;;;;;;17.26;54.98;102567.06;5084521;28;19927;-87
2022/08/09 03:37:56;;;;;;;;;;;;;;;17.23;55.01;102573.38;5085399;28;19916;-87
2022/08/09 03:40:21;;;;;;;;;;;;;;;17.19;54.85;102571.75;5083564;28;19959;-87
2022/08/09 03:42:46;;;;;;;;;;;;;;;17.17;54.77;102576.31;5087854;28;19931;-87
2022/08/09 03:45:12;;;;;;;;;;;;;;;17.15;55.11;102569.28;5083367;28;20034;-87
2022/08/09 03:47:37;;;;;;;;;;;;;;;17.12;55.09;102566.75;5087762;28;19923;-87
2022/08/09 03:50:04;;;;;;;;;;;;;;;17.10;55.62;102572.13;5085989;28;20010;-87
2022/08/09 03:52:29;;;;;;;;;;;;;;;17.09;55.39;102576.59;5082865;28;19927;-87
2022/08/09 03:54:56;;;;;;;;;;;;;;;17.08;54.90;102576.69;5084417;28;19924;-87
2022/08/09 03:57:21;;;;;;;;;;;;;;;17.05;55.14;102572.31;5065652;28;19932;-87
2022/08/09 03:59:48;;;;;;;;;;;;;;;17.04;55.36;102581.28;5080957;28;19917;-87
2022/08/09 04:02:13;;;;;;;;;;;;;;;17.01;55.48;102578.72;5082250;28;20152;-87
2022/08/09 04:04:38;;;;;;;;;;;;;;;16.98;55.64;102577.97;5086007;28;19916;-87
2022/08/09 04:07:03;;;;;;;;;;;;;;;16.94;56.55;102584.38;5088704;28;20394;-87
2022/08/09 04:09:29;;;;;;;;;;;;;;;16.91;55.88;102580.00;5082035;28;19968;-87
2022/08/09 04:12:01;;;;;;;;;;;;;;;16.90;55.81;102574.72;5089262;28;20261;-87
2022/08/09 04:14:26;;;;;;;;;;;;;;;16.91;55.93;102581.81;5068833;28;19919;-87
2022/08/09 04:16:52;;;;;;;;;;;;;;;16.88;55.43;102577.47;5080721;28;19927;-87
2022/08/09 04:19:17;;;;;;;;;;;;;;;16.88;57.80;102571.22;5081689;28;19916;-87
2022/08/09 04:21:44;;;;;;;;;;;;;;;16.85;56.26;102574.91;5063206;28;19970;-87
2022/08/09 04:24:09;;;;;;;;;;;;;;;16.82;56.64;102583.91;5086065;28;20402;-87
2022/08/09 04:26:34;;;;;;;;;;;;;;;16.72;56.19;102581.66;5067389;28;20023;-87
2022/08/09 04:28:59;;;;;;;;;;;;;;;16.69;56.50;102579.06;5087986;28;19923;-87
2022/08/09 04:31:25;;;;;;;;;;;;;;;16.69;56.50;102585.25;5087559;28;19916;-87
2022/08/09 04:33:51;;;;;;;;;;;;;;;16.63;56.45;102592.66;5088014;28;19916;-87
2022/08/09 04:36:16;;;;;;;;;;;;;;;16.65;55.94;102593.47;5083710;28;19981;-87
2022/08/09 04:38:41;;;;;;;;;;;;;;;16.69;56.99;102593.28;5086057;28;19926;-87
2022/08/09 04:41:06;;;;;;;;;;;;;;;16.68;57.49;102591.53;5066596;28;19931;-87
2022/08/09 04:43:31;;;;;;;;;;;;;;;16.66;57.51;102603.22;5083613;28;19924;-87
2022/08/09 04:45:57;;;;;;;;;;;;;;;16.64;56.61;102602.38;5063678;28;20446;-87
2022/08/09 04:48:22;;;;;;;;;;;;;;;16.58;56.37;102598.16;5082871;28;19924;-87
2022/08/09 04:50:47;;;;;;;;;;;;;;;16.55;57.24;102600.94;5083521;28;19916;-87
2022/08/09 04:53:13;;;;;;;;;;;;;;;16.50;56.51;102598.44;5078374;28;20214;-87
2022/08/09 04:55:38;;;;;;;;;;;;;;;16.55;57.33;102603.59;5063668;28;20618;-87
2022/08/09 04:58:04;;;;;;;;;;;;;;;16.59;59.29;102603.44;5084955;28;19959;-87
2022/08/09 05:00:32;;;;;;;;;;;;;;;16.70;58.20;102602.19;5080353;28;20291;-87
2022/08/09 05:02:58;;;;;;;;;;;;;;;16.76;59.85;102610.00;5085691;28;19943;-86
2022/08/09 05:05:23;;;;;;;;;;;;;;;16.83;59.58;102612.38;5082618;28;20287;-87
2022/08/09 05:07:48;;;;;;;;;;;;;;;16.87;59.10;102610.44;5085133;28;20039;-87
2022/08/09 05:10:13;;;;;;;;;;;;;;;16.93;60.28;102617.38;5080382;28;19962;-87
2022/08/09 05:12:39;;;;;;;;;;;;;;;16.97;59.62;102617.19;5079588;28;19930;-87
2022/08/09 05:15:04;;;;;;;;;;;;;;;17.03;61.60;102618.75;5077526;28;19916;-87
2022/08/09 05:17:29;;;;;;;;;;;;;;;17.08;59.93;102619.44;5081202;28;19982;-87
2022/08/09 05:19:55;;;;;;;;;;;;;;;17.12;61.50;102621.06;5077361;28;19920;-87
2022/08/09 05:22:20;;;;;;;;;;;;;;;17.16;62.16;102619.13;5086504;28;19920;-86
2022/08/09 05:24:45;;;;;;;;;;;;;;;17.19;61.52;102614.53;5083449;28;19920;-87
2022/08/09 05:27:11;;;;;;;;;;;;;;;17.25;61.91;102608.06;5084142;28;19920;-86
2022/08/09 05:29:36;;;;;;;;;;;;;;;17.28;61.90;102630.22;5084063;28;19954;-87
2022/08/09 05:32:01;;;;;;;;;;;;;;;17.28;62.63;102627.53;5062594;28;19916;-87
2022/08/09 05:34:27;;;;;;;;;;;;;;;17.31;60.46;102616.72;5067609;28;19916;-87
2022/08/09 05:36:52;;;;;;;;;;;;;;;17.34;62.93;102616.59;5086416;28;20299;-87
2022/08/09 05:39:17;;;;;;;;;;;;;;;17.37;60.47;102612.94;5085524;28;19924;-87
2022/08/09 05:41:43;;;;;;;;;;;;;;;17.43;62.54;102625.19;5082835;28;19966;-87
2022/08/09 05:44:08;;;;;;;;;;;;;;;17.48;64.07;102628.53;5077305;28;19924;-87
2022/08/09 05:46:33;;;;;;;;;;;;;;;17.52;64.42;102627.47;5082953;28;20050;-87
2022/08/09 05:48:58;;;;;;;;;;;;;;;17.53;64.28;102630.09;5064543;28;19919;-87
2022/08/09 05:51:24;;;;;;;;;;;;;;;17.58;64.56;102638.81;5080003;28;20427;-87
2022/08/09 05:53:49;;;;;;;;;;;;;;;17.62;64.16;102631.50;5076323;28;19964;-87
2022/08/09 05:56:14;;;;;;;;;;;;;;;17.68;63.25;102627.72;5080356;28;20689;-87
2022/08/09 05:58:40;;;;;;;;;;;;;;;17.71;63.37;102633.81;5079426;28;19973;-87
2022/08/09 06:01:05;;;;;;;;;;;;;;;17.73;63.60;102639.13;5080505;28;19926;-87
2022/08/09 06:03:30;;;;;;;;;;;;;;;17.73;63.44;102637.34;5077309;28;19931;-87
2022/08/09 06:05:55;;;;;;;;;;;;;;;17.81;63.78;102639.66;5077821;28;19920;-87
2022/08/09 06:08:20;;;;;;;;;;;;;;;17.86;64.72;102643.06;5076983;28;19960;-87
2022/08/09 06:10:46;;;;;;;;;;;;;;;17.92;63.69;102644.59;5082347;28;19962;-87
2022/08/09 06:13:11;;;;;;;;;;;;;;;17.95;64.44;102648.03;5076659;28;19920;-87
2022/08/09 06:15:37;;;;;;;;;;;;;;;17.98;62.68;102644.31;5061202;28;20406;-87
2022/08/09 06:18:02;;;;;;;;;;;;;;;18.01;63.98;102653.09;5076891;28;20659;-87
2022/08/09 06:20:28;;;;;;;;;;;;;;;18.05;63.61;102649.38;5083790;28;19928;-86
2022/08/09 06:22:53;;;;;;;;;;;;;;;18.09;63.65;102655.44;5083768;28;19953;-87
2022/08/09 06:25:18;;;;;;;;;;;;;;;18.19;64.93;102658.63;5081758;28;19930;-87
2022/08/09 06:27:43;;;;;;;;;;;;;;;18.27;64.37;102657.31;5082002;28;20302;-86
2022/08/09 06:30:09;;;;;;;;;;;;;;;18.38;64.54;102656.00;5076626;28;19939;-86
2022/08/09 06:32:35;;;;;;;;;;;;;;;18.43;64.88;102659.34;5062244;28;19924;-86
2022/08/09 06:35:00;;;;;;;;;;;;;;;18.48;64.04;102657.34;5058981;28;19927;-86
2022/08/09 06:37:25;;;;;;;;;;;;;;;18.57;64.59;102664.97;5064552;28;20395;-86
2022/08/09 06:39:50;;;;;;;;;;;;;;;18.66;65.02;102661.00;5081606;28;19924;-86
2022/08/09 06:42:19;;;;;;;;;;;;;;;18.77;64.38;102653.38;5062204;28;19947;-86
2022/08/09 06:44:45;;;;;;;;;;;;;;;18.92;64.08;102658.00;5081850;28;19916;-87
2022/08/09 06:47:10;;;;;;;;;;;;;;;19.06;62.84;102652.00;5078121;28;19969;-87
2022/08/09 06:49:35;;;;;;;;;;;;;;;19.19;63.45;102655.00;5080207;28;20364;-87
2022/08/09 06:52:01;;;;;;;;;;;;;;;19.32;62.60;102648.97;5078883;28;19962;-86
2022/08/09 06:54:26;;;;;;;;;;;;;;;19.47;63.26;102657.22;5077648;28;20249;-86
2022/08/09 06:56:51;;;;;;;;;;;;;;;19.62;62.79;102654.66;5080462;28;19935;-86
2022/08/09 06:59:16;;;;;;;;;;;;;;;19.78;62.75;102653.94;5080685;28;20003;-86
2022/08/09 07:01:42;;;;;;;;;;;;;;;19.93;62.20;102661.19;5060829;28;19919;-86
2022/08/09 07:04:07;;;;;;;;;;;;;;;20.09;62.38;102669.34;5081564;28;19994;-86
2022/08/09 07:06:34;;;;;;;;;;;;;;;20.21;62.10;102668.72;5078025;28;19970;-86
2022/08/09 07:08:59;;;;;;;;;;;;;;;20.33;62.25;102667.19;5076086;28;19923;-86
2022/08/09 07:11:24;;;;;;;;;;;;;;;20.48;61.43;102670.97;5081025;28;19915;-86
2022/08/09 07:13:49;;;;;;;;;;;;;;;20.55;60.48;102675.03;5062233;28;20402;-86
2022/08/09 07:16:14;;;;;;;;;;;;;;;20.69;61.04;102674.31;5079451;28;20394;-86
2022/08/09 07:18:39;;;;;;;;;;;;;;;20.86;60.72;102677.81;5081054;28;19982;-86
2022/08/09 07:21:05;;;;;;;;;;;;;;;21.00;60.08;102673.53;5084132;28;20032;-86
2022/08/09 07:23:30;;;;;;;;;;;;;;;21.13;59.70;102682.66;5081114;28;20019;-86
2022/08/09 07:25:55;;;;;;;;;;;;;;;21.25;59.52;102663.13;5076017;28;19923;-86
2022/08/09 07:28:20;;;;;;;;;;;;;;;21.46;59.31;102673.69;5083864;28;19928;-86
2022/08/09 07:30:45;;;;;;;;;;;;;;;21.63;59.39;102660.09;5082019;28;19920;-86
2022/08/09 07:33:11;;;;;;;;;;;;;;;21.81;58.44;102664.41;5085737;28;19923;-86
2022/08/09 07:35:36;;;;;;;;;;;;;;;21.96;57.55;102680.63;5085422;28;20041;-86
2022/08/09 07:38:02;;;;;;;;;;;;;;;22.02;57.13;102681.16;5073490;28;19924;-86
2022/08/09 07:40:27;;;;;;;;;;;;;;;22.14;57.07;102674.16;5078939;28;19934;-86
2022/08/09 07:42:58;;;;;;;;;;;;;;;22.38;56.12;102683.50;5081927;28;20321;-86
2022/08/09 07:45:24;;;;;;;;;;;;;;;22.77;55.53;102682.00;5084726;28;19928;-86
2022/08/09 07:47:51;;;;;;;;;;;;;;;23.20;54.39;102676.59;5078985;28;19923;-86
2022/08/09 07:50:16;;;;;;;;;;;;;;;23.68;53.12;102667.13;5077978;28;19927;-86
2022/08/09 07:52:41;;;;;;;;;;;;;;;24.13;51.83;102677.66;5078249;28;20010;-86
2022/08/09 07:55:07;;;;;;;;;;;;;;;24.61;50.64;102675.25;5085819;28;19951;-86
2022/08/09 07:57:33;;;;;;;;;;;;;;;25.02;49.15;102672.28;5085650;28;19959;-87
2022/08/09 07:59:58;;;;;;;;;;;;;;;25.38;48.34;102676.88;5077962;28;19931;-86
2022/08/09 08:02:24;;;;;;;;;;;;;;;25.73;47.46;102677.94;5066205;28;20166;-87
2022/08/09 08:04:49;;;;;;;;;;;;;;;26.09;45.74;102680.59;5073161;28;19964;-87
2022/08/09 08:07:14;;;;;;;;;;;;;;;26.44;46.03;102690.59;5085391;28;20011;-87
2022/08/09 08:09:39;;;;;;;;;;;;;;;26.79;45.99;102695.06;5083870;28;19927;-87
2022/08/09 08:12:05;;;;;;;;;;;;;;;27.11;43.60;102681.66;5084342;28;19920;-87
2022/08/09 08:14:30;;;;;;;;;;;;;;;27.36;43.36;102681.34;5081837;28;20369;-87
2022/08/09 08:16:55;;;;;;;;;;;;;;;27.65;42.62;102687.09;5080644;28;20264;-88
2022/08/09 08:19:20;;;;;;;;;;;;;;;27.82;44.20;102674.81;5078242;28;19912;-88
2022/08/09 08:21:46;;;;;;;;;;;;;;;28.05;42.16;102672.88;5082715;28;19916;-88
2022/08/09 08:24:11;;;;;;;;;;;;;;;28.39;41.59;102678.13;5079493;28;20359;-88
2022/08/09 08:26:37;;;;;;;;;;;;;;;28.81;40.10;102683.53;5076117;28;19920;-88
2022/08/09 08:29:02;;;;;;;;;;;;;;;29.12;39.00;102674.38;5057561;28;19973;-88
2022/08/09 08:31:27;;;;;;;;;;;;;;;29.54;38.35;102673.31;5061659;28;19959;-88
2022/08/09 08:33:53;;;;;;;;;;;;;;;29.91;38.15;102670.78;5088274;28;19916;-88
2022/08/09 08:36:18;;;;;;;;;;;;;;;30.29;37.13;102677.25;5083354;28;19927;-88
2022/08/09 08:38:43;;;;;;;;;;;;;;;30.63;38.85;102674.84;5065734;28;19920;-88
2022/08/09 08:41:09;;;;;;;;;;;;;;;31.04;38.58;102675.41;5086676;28;20336;-88
2022/08/09 08:43:35;;;;;;;;;;;;;;;31.32;36.72;102679.03;5070011;28;19916;-88
2022/08/09 08:46:02;;;;;;;;;;;;;;;31.68;35.63;102677.22;5064087;28;19970;-88
2022/08/09 08:48:27;;;;;;;;;;;;;;;32.01;34.75;102681.13;5057119;28;20340;-88
2022/08/09 08:50:52;;;;;;;;;;;;;;;32.29;35.59;102676.38;5074848;28;19917;-88
2022/08/09 08:53:18;;;;;;;;;;;;;;;32.50;33.74;102673.28;5083011;28;19928;-88
2022/08/09 08:55:43;;;;;;;;;;;;;;;32.83;33.65;102679.84;5061219;28;19931;-88
2022/08/09 08:58:09;;;;;;;;;;;;;;;33.31;32.57;102686.56;5061378;28;19924;-88
2022/08/09 09:00:34;;;;;;;;;;;;;;;33.51;28.90;102682.50;5081997;28;20307;-88
2022/08/09 09:03:00;;;;;;;;;;;;;;;33.53;31.72;102686.97;5068317;28;19923;-88
2022/08/09 09:05:26;;;;;;;;;;;;;;;33.65;28.73;102697.47;5065612;28;19916;-88
2022/08/09 09:07:51;;;;;;;;;;;;;;;33.93;29.42;102695.25;5084548;28;20443;-88
2022/08/09 09:10:17;;;;;;;;;;;;;;;34.16;29.87;102695.47;5084916;28;19927;-88
2022/08/09 09:12:43;;;;;;;;;;;;;;;34.41;27.49;102698.16;5083440;28;20437;-88
2022/08/09 09:15:08;;;;;;;;;;;;;;;34.62;29.08;102706.75;5075872;28;19923;-88
2022/08/09 09:17:35;;;;;;;;;;;;;;;34.84;26.64;102705.16;5084098;28;19966;-89
2022/08/09 09:20:00;;;;;;;;;;;;;;;34.99;26.00;102710.78;5080656;28;19990;-88
2022/08/09 09:22:25;;;;;;;;;;;;;;;35.08;28.67;102706.13;5079165;28;19935;-88
2022/08/09 09:24:52;;;;;;;;;;;;;;;35.29;29.02;102703.59;5085648;28;19916;-88
2022/08/09 09:27:24;;;;;;;;;;;;;;;35.47;25.06;102706.09;5063336;28;20037;-88
2022/08/09 09:29:49;;;;;;;;;;;;;;;35.44;26.40;102711.94;5065438;28;19912;-89
2022/08/09 09:32:21;;;;;;;;;;;;;;;35.26;25.38;102703.97;5085437;28;19920;-88
2022/08/09 09:35:03;;;;;;;;;;;;;;;35.15;26.31;102707.97;5085334;28;19916;-88
2022/08/09 09:37:29;;;;;;;;;;;;;;;35.11;26.78;102700.25;5078324;28;19920;-88
2022/08/09 09:39:54;;;;;;;;;;;;;;;35.16;26.34;102698.69;5059774;28;19927;-88
2022/08/09 09:42:24;;;;;;;;;;;;;;;35.32;27.59;102695.00;5064745;28;20026;-88
2022/08/09 09:44:53;;;;;;;;;;;;;;;35.41;26.55;102688.41;5087903;28;19924;-89
2022/08/09 09:47:20;;;;;;;;;;;;;;;35.23;24.99;102693.31;5081984;28;19973;-88
2022/08/09 09:49:48;;;;;;;;;;;;;;;34.79;25.12;102696.59;5082855;28;20402;-88
2022/08/09 09:52:14;;;;;;;;;;;;;;;34.44;27.56;102698.69;5073768;28;19922;-88
2022/08/09 09:54:42;;;;;;;;;;;;;;;34.20;27.49;102695.97;5086208;28;19949;-88
2022/08/09 09:57:18;;;;;;;;;;;;;;;33.84;28.89;102696.28;5062981;28;19916;-88
2022/08/09 09:59:44;;;;;;;;;;;;;;;33.46;27.66;102701.34;5066307;28;19981;-88
2022/08/09 10:02:09;;;;;;;;;;;;;;;33.33;29.28;102697.34;5082527;28;19912;-88
2022/08/09 10:04:34;;;;;;;;;;;;;;;33.26;30.54;102691.69;5089083;28;19927;-88
2022/08/09 10:07:00;;;;;;;;;;;;;;;33.15;29.47;102694.72;5081827;28;20062;-88
2022/08/09 10:09:25;;;;;;;;;;;;;;;32.76;31.26;102697.94;5063892;28;19969;-87
2022/08/09 10:11:57;;;;;;;;;;;;;;;32.88;30.51;102699.38;5085689;28;20469;-88
2022/08/09 10:14:24;;;;;;;;;;;;;;;32.95;29.94;102699.59;5076932;28;19990;-88
2022/08/09 10:16:49;;;;;;;;;;;;;;;33.12;30.27;102700.53;5064279;28;19920;-89
2022/08/09 10:19:14;;;;;;;;;;;;;;;33.17;30.67;102692.69;5084763;28;20010;-89
2022/08/09 10:21:47;;;;;;;;;;;;;;;33.40;30.41;102693.78;5085906;28;19923;-88
2022/08/09 10:24:13;;;;;;;;;;;;;;;33.63;28.06;102685.81;5084509;28;20460;-88
2022/08/09 10:26:38;;;;;;;;;;;;;;;33.90;29.43;102692.88;5078261;28;19913;-88
2022/08/09 10:29:04;;;;;;;;;;;;;;;34.03;26.95;102688.78;5083399;28;19939;-88
2022/08/09 10:31:30;;;;;;;;;;;;;;;33.89;27.46;102691.13;5065460;28;19928;-88
2022/08/09 10:33:55;;;;;;;;;;;;;;;33.97;25.90;102685.69;5079348;28;19995;-88
2022/08/09 10:36:21;;;;;;;;;;;;;;;33.95;26.29;102687.75;5082235;28;20005;-89
2022/08/09 10:38:46;;;;;;;;;;;;;;;33.95;26.80;102685.00;5083048;28;20494;-88
2022/08/09 10:41:13;;;;;;;;;;;;;;;34.05;28.56;102687.59;5079639;28;19943;-88
2022/08/09 10:43:42;;;;;;;;;;;;;;;34.17;27.50;102679.84;5079619;28;19920;-88
2022/08/09 10:46:37;;;;;;;;;;;;;;;34.27;25.66;102677.75;5076754;28;19924;-89
2022/08/09 10:49:20;;;;;;;;;;;;;;;34.08;26.78;102672.63;5077004;28;20056;-88
2022/08/09 10:51:54;;;;;;;;;;;;;;;34.15;26.39;102676.41;5079256;28;20402;-88
2022/08/09 10:54:23;;;;;;;;;;;;;;;34.32;25.04;102669.84;5079942;28;19924;-88
2022/08/09 10:57:04;;;;;;;;;;;;;;;34.24;25.79;102668.00;5078293;28;19932;-88
2022/08/09 10:59:29;;;;;;;;;;;;;;;34.36;26.25;102660.25;5076315;28;19919;-88
2022/08/09 11:01:55;;;;;;;;;;;;;;;34.46;25.05;102660.97;5087122;28;19924;-88
2022/08/09 11:04:22;;;;;;;;;;;;;;;34.48;24.82;102667.13;5075667;28;20326;-88
2022/08/09 11:06:48;;;;;;;;;;;;;;;34.45;25.71;102672.94;5075766;28;19991;-88
2022/08/09 11:09:17;;;;;;;;;;;;;;;34.62;25.96;102670.19;5074358;28;19966;-88
2022/08/09 11:11:58;;;;;;;;;;;;;;;34.78;25.42;102670.13;5077554;28;20359;-88
2022/08/09 11:14:30;;;;;;;;;;;;;;;34.62;24.26;102667.44;5078868;28;19920;-88
2022/08/09 11:16:56;;;;;;;;;;;;;;;34.63;26.01;102667.25;5076690;28;19973;-89
2022/08/09 11:19:50;;;;;;;;;;;;;;;34.59;26.96;102663.13;5083522;28;20278;-88
2022/08/09 11:22:15;;;;;;;;;;;;;;;34.23;26.68;102666.28;5083142;28;19939;-89
2022/08/09 11:24:56;;;;;;;;;;;;;;;34.60;26.51;102669.47;5084479;28;20374;-88
2022/08/09 11:27:29;;;;;;;;;;;;;;;35.10;25.22;102665.56;5077500;28;19916;-89
2022/08/09 11:29:55;;;;;;;;;;;;;;;35.22;26.18;102669.63;5074353;28;19920;-88
2022/08/09 11:32:38;;;;;;;;;;;;;;;34.96;25.49;102657.00;5066278;28;20415;-88
2022/08/09 11:35:07;;;;;;;;;;;;;;;35.07;26.96;102650.28;5081594;28;20011;-88
2022/08/09 11:37:33;;;;;;;;;;;;;;;35.27;26.33;102648.78;5081440;28;19930;-87
2022/08/09 11:40:00;;;;;;;;;;;;;;;35.29;24.59;102648.59;5077582;28;19916;-88
2022/08/09 11:42:42;;;;;;;;;;;;;;;35.43;26.36;102650.56;5076934;28;20557;-88
2022/08/09 11:45:19;;;;;;;;;;;;;;;35.47;26.28;102643.69;5075793;28;19943;-88
2022/08/09 11:47:45;;;;;;;;;;;;;;;35.43;24.84;102641.44;5078375;28;19917;-88
2022/08/09 11:50:11;;;;;;;;;;;;;;;35.60;23.33;102639.47;5078293;28;19916;-88
2022/08/09 11:52:54;;;;;;;;;;;;;;;35.58;25.75;102642.44;5078788;28;20329;-88
2022/08/09 11:55:36;;;;;;;;;;;;;;;35.62;24.72;102632.75;5054748;28;19917;-88
2022/08/09 11:58:03;;;;;;;;;;;;;;;35.61;23.17;102630.19;5083418;28;19928;-88
2022/08/09 12:00:31;;;;;;;;;;;;;;;35.69;23.73;102628.22;5075783;28;20446;-88
2022/08/09 12:02:57;;;;;;;;;;;;;;;35.63;23.52;102628.09;5087878;28;19916;-89
2022/08/09 12:05:32;;;;;;;;;;;;;;;35.48;23.14;102626.13;5067099;28;20537;-88
2022/08/09 12:07:58;;;;;;;;;;;;;;;35.51;23.80;102622.19;5086440;28;19923;-88
2022/08/09 12:10:24;;;;;;;;;;;;;;;35.68;24.61;102620.16;5067287;28;19947;-88
2022/08/09 12:12:50;;;;;;;;;;;;;;;35.99;22.24;102617.31;5089665;28;20287;-88
2022/08/09 12:15:25;;;;;;;;;;;;;;;35.82;22.33;102619.34;5070722;28;20359;-88
2022/08/09 12:17:51;;;;;;;;;;;;;;;35.80;23.85;102623.31;5082634;28;20323;-88
2022/08/09 12:20:18;;;;;;;;;;;;;;;36.06;22.11;102623.78;5082554;28;19923;-89
2022/08/09 12:22:44;;;;;;;;;;;;;;;36.17;22.06;102623.31;5061471;28;19968;-88
2022/08/09 12:25:14;;;;;;;;;;;;;;;36.13;21.96;102619.22;5081690;28;19923;-88
2022/08/09 12:27:39;;;;;;;;;;;;;;;36.21;21.40;102619.16;5081579;28;20076;-88
2022/08/09 12:30:06;;;;;;;;;;;;;;;35.99;21.75;102612.66;5082785;28;20569;-88
2022/08/09 12:32:32;;;;;;;;;;;;;;;35.89;22.20;102616.69;5047292;28;20447;-88